• Join FlightAware (Why Join?)
  • Login
  • US Flag 
03:03PM EST


 

Airport Tracker/Info


-or-


 

Live Flight TrackerFlight Track Log ✈ N844JD ✈ 03-Dec-2013 ✈ KBFI - PAFA / FAI

Flight Track Log - Related Links

Times and Time Zones

All times are in EST time to prevent confusion due to time zone crossing. See the N844JD flight status page for this flight to view local times or setup timezone preferences in your user account.

Time Position Orientation Groundspeed Altitude Reporting Facility
EST Latitude Longitude Course Direction KTS MPH feet Rate Location/Type
03:10PM 47.5453 -122.3153 325° Northwest 157 181 1,000  Level Seattle Center
03:11PM 47.5575 -122.3281 325° Northwest 168 193 1,900 3,360 Climbing Seattle Center
03:12PM 47.6103 -122.4014 317° Northwest 229 264 6,300 3,780 Climbing Seattle Center
03:13PM 47.6367 -122.5014 291° West 259 298 10,500 3,900 Climbing Seattle Center
03:14PM 47.6636 -122.6097 290° West 278 320 14,300 3,540 Climbing Seattle Center
03:15PM 47.6942 -122.7300 291° West 308 354 17,700 2,820 Climbing Seattle Center
03:16PM 47.7269 -122.8617 290° West 323 372 20,100 2,400 Climbing Seattle Center
03:17PM 47.7722 -122.9878 298° West 341 392 22,700 2,400 Climbing Seattle Center
03:18PM 47.8411 -123.0861 316° Northwest 346 398 25,000 2,040 Climbing Seattle Center
03:19PM 47.9242 -123.1656 327° Northwest 348 400 26,900 2,100 Climbing Seattle Center
03:20PM 48.0069 -123.2486 326° Northwest 357 411 29,300 2,100 Climbing Seattle Center
03:21PM 48.0886 -123.3278 327° Northwest 354 407 31,200 1,980 Climbing Seattle Center
03:22PM 48.1333 -123.4000 313° West 350 403 32,900 1,620 Climbing Vancouver Center
03:23PM 48.2167 -123.4667 332° Northwest 350 403 34,100 1,200 Climbing Vancouver Center
03:24PM 48.3000 -123.5500 326° Northwest 350 403 35,400 1,260 Climbing Vancouver Center
03:25PM 48.3833 -123.6500 321° Northwest 340 391 36,700 1,080 Climbing Vancouver Center
03:26PM 48.4667 -123.7167 332° Northwest 340 391 37,600 600 Climbing Vancouver Center
03:27PM 48.5333 -123.8000 320° Northwest 340 391 38,000 180 Climbing Vancouver Center
03:28PM 48.6167 -123.9000 322° Northwest 360 414 38,000  Level Vancouver Center
03:29PM 48.7000 -123.9833 327° Northwest 380 437 38,000  Level Vancouver Center
03:31PM 48.8833 -124.1833 324° Northwest 390 449 38,000  Level Vancouver Center
03:32PM 48.9833 -124.2500 336° Northwest 390 449 38,000  Level Vancouver Center
03:33PM 49.0667 -124.3667 317° Northwest 400 460 38,000  Level Vancouver Center
03:34PM 49.1667 -124.4667 327° Northwest 400 460 38,000  Level Vancouver Center
03:35PM 49.2500 -124.5333 332° Northwest 390 449 38,000  Level Vancouver Center
03:36PM 49.3333 -124.6500 318° Northwest 380 437 38,000  Level Vancouver Center
03:37PM 49.4333 -124.7167 337° Northwest 380 437 38,000  Level Vancouver Center
03:38PM 49.5167 -124.8333 318° Northwest 380 437 38,000  Level Vancouver Center
03:39PM 49.6000 -124.9333 322° Northwest 380 437 38,000  Level Vancouver Center
03:40PM 49.7000 -125.0167 332° Northwest 380 437 38,000  Level Vancouver Center
03:41PM 49.7833 -125.1167 322° Northwest 390 449 38,000  Level Vancouver Center
03:42PM 49.8667 -125.2000 327° Northwest 390 449 38,000  Level Vancouver Center
03:43PM 49.9500 -125.3000 322° Northwest 380 437 38,000  Level Vancouver Center
03:44PM 50.0500 -125.4167 323° Northwest 380 437 38,000  Level Vancouver Center
03:45PM 50.1333 -125.4833 333° Northwest 390 449 38,000  Level Vancouver Center
03:46PM 50.2167 -125.6000 318° Northwest 380 437 38,000  Level Vancouver Center
03:47PM 50.3167 -125.6833 332° Northwest 380 437 38,000  Level Vancouver Center
03:48PM 50.3833 -125.7833 316° Northwest 380 437 38,000  Level Vancouver Center
03:49PM 50.4667 -125.9000 318° Northwest 380 437 38,000  Level Vancouver Center
03:50PM 50.5500 -125.9833 328° Northwest 380 437 38,000  Level Vancouver Center
03:51PM 50.6500 -126.0833 328° Northwest 370 426 38,000  Level Vancouver Center
03:52PM 50.7333 -126.1667 328° Northwest 370 426 38,000  Level Vancouver Center
03:53PM 50.8167 -126.2500 328° Northwest 370 426 38,000  Level Vancouver Center
03:54PM 50.9000 -126.3667 319° Northwest 380 437 38,000  Level Vancouver Center
03:55PM 50.9833 -126.4833 319° Northwest 380 437 38,000  Level Vancouver Center
03:56PM 51.0667 -126.5667 328° Northwest 370 426 38,000  Level Vancouver Center
03:57PM 51.1333 -126.6667 317° Northwest 370 426 38,000  Level Vancouver Center
03:58PM 51.2333 -126.7667 328° Northwest 370 426 38,000  Level Vancouver Center
03:59PM 51.3167 -126.8667 323° Northwest 370 426 38,000  Level Vancouver Center
04:00PM 51.4000 -126.9500 328° Northwest 380 437 38,000  Level Vancouver Center
04:01PM 51.4833 -127.0667 319° Northwest 380 437 38,000  Level Vancouver Center
04:02PM 51.5667 -127.1500 328° Northwest 380 437 38,000  Level Vancouver Center
04:03PM 51.6500 -127.2667 319° Northwest 370 426 38,000  Level Vancouver Center
04:04PM 51.7167 -127.3500 322° Northwest 380 437 38,000  Level Vancouver Center
04:05PM 51.8167 -127.4667 324° Northwest 380 437 38,000  Level Vancouver Center
04:06PM 51.9000 -127.5667 323° Northwest 370 426 38,000  Level Vancouver Center
04:07PM 51.9833 -127.6500 328° Northwest 370 426 38,000  Level Vancouver Center
04:08PM 52.0667 -127.7667 319° Northwest 370 426 38,000  Level Vancouver Center
04:09PM 52.1500 -127.8500 328° Northwest 370 426 38,000  Level Vancouver Center
04:10PM 52.2167 -127.9667 313° West 370 426 38,000  Level Vancouver Center
04:11PM 52.3000 -128.0500 329° Northwest 370 426 38,000  Level Vancouver Center
04:12PM 52.4000 -128.1833 321° Northwest 380 437 38,000  Level Vancouver Center
04:13PM 52.4833 -128.3000 320° Northwest 380 437 38,000  Level Vancouver Center
04:14PM 52.5500 -128.3833 323° Northwest 380 437 38,000  Level Vancouver Center
04:15PM 52.6333 -128.5000 320° Northwest 380 437 38,000  Level Vancouver Center
04:16PM 52.7167 -128.6000 324° Northwest 380 437 38,000  Level Vancouver Center
04:17PM 52.8167 -128.7167 325° Northwest 390 449 38,000  Level Vancouver Center
04:18PM 52.8833 -128.8000 323° Northwest 380 437 38,000  Level Vancouver Center
04:19PM 52.9667 -128.9333 316° Northwest 380 437 38,000  Level Vancouver Center
04:20PM 53.0500 -129.0167 329° Northwest 380 437 38,000  Level Vancouver Center
04:21PM 53.1500 -129.1500 321° Northwest 380 437 38,000  Level Vancouver Center
04:22PM 53.2167 -129.2667 314° West 380 437 38,000  Level Vancouver Center
04:23PM 53.3167 -129.3667 329° Northwest 380 437 38,000  Level Vancouver Center
04:24PM 53.4000 -129.4833 320° Northwest 380 437 38,000  Level Vancouver Center
04:25PM 53.4833 -129.5833 324° Northwest 380 437 38,000  Level Vancouver Center
04:26PM 53.5500 -129.7000 314° West 380 437 38,000  Level Vancouver Center
04:27PM 53.6333 -129.8000 325° Northwest 380 437 38,000  Level Vancouver Center
04:28PM 53.7167 -129.9167 320° Northwest 370 426 38,000  Level Vancouver Center
04:29PM 53.8000 -130.0500 317° Northwest 370 426 38,000  Level Vancouver Center
04:30PM 53.8833 -130.1500 325° Northwest 380 437 38,000  Level Vancouver Center
04:31PM 53.9667 -130.2333 330° Northwest 380 437 38,000  Level Vancouver Center
04:32PM 54.0333 -130.3667 310° West 380 437 38,000  Level Vancouver Center
04:33PM 54.1167 -130.4667 325° Northwest 380 437 38,000 120 Level Vancouver Center
04:34PM 54.2167 -130.6000 322° Northwest 380 437 38,300 420 Climbing Vancouver Center
04:35PM 54.2833 -130.7167 314° West 380 437 38,900 480 Climbing Vancouver Center
04:36PM 54.3667 -130.8167 325° Northwest 370 426 39,300 540 Climbing Vancouver Center
04:37PM 54.4333 -130.9500 311° West 370 426 40,000 300 Climbing Vancouver Center
04:38PM 54.5167 -131.0500 325° Northwest 370 426 40,000  Level Vancouver Center
04:39PM 54.6000 -131.1833 317° Northwest 370 426 40,000  Level Vancouver Center
04:40PM 54.6833 -131.2833 325° Northwest 380 437 40,000  Level Vancouver Center
04:41PM 54.7667 -131.4167 317° Northwest 380 437 40,000  Level Vancouver Center
04:42PM 54.8500 -131.5167 325° Northwest 370 426 40,000  Level Vancouver Center
04:43PM 54.9000 -131.5667 330° Northwest 370 426 40,000  Level Anchorage Center
04:44PM 54.9833 -131.6833 321° Northwest 370 426 40,000  Level Anchorage Center
04:45PM 55.0667 -131.8000 321° Northwest 370 426 40,000  Level Anchorage Center
04:46PM 55.1333 -131.9167 315° West 370 426 40,000  Level Anchorage Center
04:47PM 55.2167 -132.0333 321° Northwest 370 426 40,000  Level Anchorage Center
04:48PM 55.3000 -132.1500 321° Northwest 370 426 40,000  Level Anchorage Center
04:49PM 55.3833 -132.2667 322° Northwest 370 426 40,000  Level Anchorage Center
04:50PM 55.4500 -132.3833 315° West 350 403 40,000  Level Anchorage Center
04:51PM 55.5167 -132.5000 315° West 360 414 40,000  Level Anchorage Center
04:52PM 55.6000 -132.6167 322° Northwest 370 426 40,000  Level Anchorage Center
04:53PM 55.6833 -132.7333 322° Northwest 370 426 40,000  Level Anchorage Center
04:54PM 55.7500 -132.8500 315° West 370 426 40,000  Level Anchorage Center
04:55PM 55.8333 -132.9667 322° Northwest 370 426 40,000  Level Anchorage Center
04:56PM 55.9000 -133.0833 316° Northwest 360 414 40,000  Level Anchorage Center
04:57PM 55.9833 -133.2167 318° Northwest 370 426 40,000  Level Anchorage Center
04:58PM 56.0667 -133.3333 322° Northwest 370 426 40,000  Level Anchorage Center
04:59PM 56.1333 -133.4500 316° Northwest 370 426 40,000  Level Anchorage Center
05:00PM 56.2167 -133.5833 318° Northwest 360 414 40,000  Level Anchorage Center
05:01PM 56.2833 -133.7000 316° Northwest 370 426 40,000  Level Anchorage Center
05:02PM 56.3667 -133.8167 322° Northwest 370 426 40,000  Level Anchorage Center
05:03PM 56.4333 -133.9500 312° West 350 403 40,000  Level Anchorage Center
05:04PM 56.5167 -134.0667 322° Northwest 360 414 40,000  Level Anchorage Center
05:05PM 56.5833 -134.1833 316° Northwest 360 414 40,000  Level Anchorage Center
05:06PM 56.6667 -134.3167 319° Northwest 360 414 40,000  Level Anchorage Center
05:07PM 56.7333 -134.4333 316° Northwest 370 426 40,000  Level Anchorage Center
05:08PM 56.8167 -134.5667 319° Northwest 370 426 40,000  Level Anchorage Center
05:09PM 56.8833 -134.6833 316° Northwest 370 426 40,000  Level Anchorage Center
05:10PM 56.9667 -134.8167 319° Northwest 370 426 40,000  Level Anchorage Center
05:11PM 57.0333 -134.9333 316° Northwest 370 426 40,000  Level Anchorage Center
05:12PM 57.1167 -135.0667 319° Northwest 370 426 40,000  Level Anchorage Center
05:13PM 57.1833 -135.2000 313° West 370 426 40,000  Level Anchorage Center
05:14PM 57.2500 -135.3333 313° West 370 426 40,000  Level Anchorage Center
05:15PM 57.3333 -135.4500 323° Northwest 370 426 40,000  Level Anchorage Center
05:16PM 57.4000 -135.5833 313° West 370 426 40,000  Level Anchorage Center
05:17PM 57.4833 -135.7167 319° Northwest 370 426 40,000  Level Anchorage Center
05:18PM 57.5500 -135.8500 313° West 360 414 40,000  Level Anchorage Center
05:19PM 57.6167 -135.9667 317° Northwest 360 414 40,000  Level Anchorage Center
05:20PM 57.7000 -136.1000 319° Northwest 360 414 40,000  Level Anchorage Center
05:21PM 57.7667 -136.2333 313° West 350 403 40,000  Level Anchorage Center
05:22PM 57.8333 -136.3667 313° West 350 403 40,000  Level Anchorage Center
05:23PM 57.9000 -136.4833 317° Northwest 350 403 40,000  Level Anchorage Center
05:24PM 57.9667 -136.6167 313° West 350 403 40,000  Level Anchorage Center
05:25PM 58.0500 -136.7333 323° Northwest 350 403 40,000  Level Anchorage Center
05:26PM 58.1000 -136.8667 305° West 340 391 40,000  Level Anchorage Center
05:27PM 58.1833 -137.0000 320° Northwest 350 403 40,000  Level Anchorage Center
05:28PM 58.2500 -137.1333 314° West 350 403 40,000  Level Anchorage Center
05:29PM 58.3167 -137.2667 314° West 360 414 40,000  Level Anchorage Center
05:30PM 58.3833 -137.4000 314° West 350 403 40,000  Level Anchorage Center
05:31PM 58.4667 -137.5333 320° Northwest 360 414 40,000  Level Anchorage Center
05:32PM 58.5333 -137.6667 314° West 350 403 40,000  Level Anchorage Center
05:33PM 58.6000 -137.8000 314° West 360 414 40,000  Level Anchorage Center
05:34PM 58.6667 -137.9333 314° West 350 403 40,000  Level Anchorage Center
05:35PM 58.7333 -138.0667 314° West 360 414 40,000  Level Anchorage Center
05:36PM 58.8000 -138.2167 311° West 360 414 40,000  Level Anchorage Center
05:37PM 58.8833 -138.3500 320° Northwest 360 414 40,000  Level Anchorage Center
05:38PM 58.9500 -138.5000 311° West 360 414 40,000  Level Anchorage Center
05:39PM 59.0167 -138.6333 314° West 360 414 40,000  Level Anchorage Center
05:40PM 59.0833 -138.7833 311° West 370 426 40,000  Level Anchorage Center
05:41PM 59.1500 -138.9167 314° West 370 426 40,000  Level Anchorage Center
05:42PM 59.2333 -139.0667 317° Northwest 360 414 40,000  Level Anchorage Center
05:43PM 59.3000 -139.2000 314° West 370 426 40,000  Level Anchorage Center
05:44PM 59.3667 -139.3500 311° West 370 426 40,000  Level Anchorage Center
05:45PM 59.4333 -139.5000 311° West 360 414 40,000  Level Anchorage Center
05:46PM 59.5000 -139.6333 315° West 360 414 40,000  Level Anchorage Center
05:47PM 59.5667 -139.7333 323° Northwest 340 391 40,000  Level Anchorage Center
05:48PM 59.6667 -139.8333 333° Northwest 360 414 40,000  Level Anchorage Center
05:49PM 59.7667 -139.9333 333° Northwest 370 426 40,000  Level Anchorage Center
05:50PM 59.8500 -140.0333 329° Northwest 360 414 40,000  Level Anchorage Center
05:51PM 59.9333 -140.1333 329° Northwest 360 414 40,000  Level Anchorage Center
05:52PM 60.0167 -140.2333 329° Northwest 360 414 40,000  Level Anchorage Center
05:53PM 60.1167 -140.3500 330° Northwest 370 426 40,000  Level Anchorage Center
05:54PM 60.2000 -140.4500 329° Northwest 370 426 40,000  Level Anchorage Center
05:55PM 60.2833 -140.5500 329° Northwest 370 426 40,000  Level Anchorage Center
05:56PM 60.3833 -140.6667 330° Northwest 370 426 40,000  Level Anchorage Center
05:57PM 60.4667 -140.7667 329° Northwest 360 414 40,000  Level Anchorage Center
05:58PM 60.5500 -140.8833 325° Northwest 370 426 40,000  Level Anchorage Center
05:59PM 60.6333 -140.9833 330° Northwest 360 414 40,000  Level Anchorage Center
06:00PM 60.7333 -141.1000 330° Northwest 370 426 40,000  Level Anchorage Center
06:01PM 60.8167 -141.2000 330° Northwest 360 414 40,000  Level Anchorage Center
06:02PM 60.9000 -141.3167 326° Northwest 370 426 40,000  Level Anchorage Center
06:03PM 61.0000 -141.4333 331° Northwest 370 426 40,000  Level Anchorage Center
06:04PM 61.0833 -141.5333 330° Northwest 370 426 40,000  Level Anchorage Center
06:05PM 61.1667 -141.6500 326° Northwest 370 426 40,000  Level Anchorage Center
06:06PM 61.2667 -141.7667 331° Northwest 370 426 40,000  Level Anchorage Center
06:07PM 61.3500 -141.8833 326° Northwest 370 426 40,000  Level Anchorage Center
06:08PM 61.4333 -142.0000 326° Northwest 380 437 40,000  Level Anchorage Center
06:09PM 61.5167 -142.1167 326° Northwest 370 426 40,000  Level Anchorage Center
06:10PM 61.6167 -142.2333 331° Northwest 370 426 40,000  Level Anchorage Center
06:11PM 61.7000 -142.3333 330° Northwest 380 437 40,000  Level Anchorage Center
06:12PM 61.7833 -142.4500 327° Northwest 370 426 40,000  Level Anchorage Center
06:13PM 61.8667 -142.5667 327° Northwest 360 414 40,000  Level Anchorage Center
06:14PM 61.9667 -142.6833 331° Northwest 380 437 40,000  Level Anchorage Center
06:15PM 62.0500 -142.8167 323° Northwest 370 426 40,000  Level Anchorage Center
06:16PM 62.1333 -142.9333 327° Northwest 370 426 40,000  Level Anchorage Center
06:17PM 62.2167 -143.0500 327° Northwest 370 426 40,000  Level Anchorage Center
06:18PM 62.3167 -143.1833 328° Northwest 380 437 40,000  Level Anchorage Center
06:19PM 62.4000 -143.3000 327° Northwest 370 426 40,000  Level Anchorage Center
06:20PM 62.5000 -143.4333 328° Northwest 390 449 40,000  Level Anchorage Center
06:21PM 62.5833 -143.5667 324° Northwest 380 437 40,000  Level Anchorage Center
06:22PM 62.6667 -143.6833 327° Northwest 370 426 40,000  Level Anchorage Center
06:23PM 62.7667 -143.8000 332° Northwest 370 426 40,000  Level Anchorage Center
06:24PM 62.8500 -143.9333 324° Northwest 360 414 40,000  Level Anchorage Center
06:25PM 62.9167 -144.0667 318° Northwest 360 414 40,000  Level Anchorage Center
06:26PM 63.0167 -144.1833 332° Northwest 360 414 40,000  Level Anchorage Center
06:27PM 63.1000 -144.3000 328° Northwest 360 414 40,000  Level Anchorage Center
06:28PM 63.1833 -144.4333 324° Northwest 350 403 40,000  Level Anchorage Center
06:29PM 63.2667 -144.5500 328° Northwest 360 414 40,000 -360 Level Anchorage Center
06:30PM 63.3500 -144.6833 324° Northwest 350 403 39,300 -1,200 Descending Anchorage Center
06:31PM 63.4167 -144.8000 322° Northwest 340 391 37,700 -2,340 Descending Anchorage Center
06:32PM 63.5000 -144.9167 328° Northwest 350 403 34,700 -3,060 Descending Anchorage Center
06:33PM 63.5833 -145.0667 321° Northwest 350 403 31,600 -2,220 Descending Anchorage Center
06:34PM 63.6667 -145.1833 328° Northwest 350 403 30,300 -1,380 Descending Anchorage Center
06:35PM 63.7333 -145.3000 322° Northwest 350 403 28,900 -1,440 Descending Anchorage Center
06:36PM 63.8333 -145.4333 330° Northwest 370 426 27,500 -1,500 Descending Anchorage Center
06:37PM 63.9167 -145.5667 325° Northwest 380 437 26,000 -1,740 Descending Anchorage Center
06:38PM 64.0000 -145.7167 322° Northwest 370 426 24,100 -1,680 Descending Anchorage Center
06:39PM 64.0667 -145.8667 315° West 360 414 22,700 -1,200 Descending Anchorage Center
06:40PM 64.1500 -146.0167 322° Northwest 360 414 21,700 -1,620 Descending Anchorage Center
06:41PM 64.2167 -146.2000 310° West 360 414 19,500 -2,220 Descending Anchorage Center
06:43PM 64.3108 -146.4955 311° West  Level FlightAware Approximate
06:50PM 64.7693 -147.7427 304° West  Level FlightAware Approximate
06:51PM 64.8000 -147.8500 304° West  Level FlightAware Approximate
06:52PM 64.8151 -147.8564 304° West  Level Estimated
06:53PM 64.8151 -147.8564 304° West  Level Estimated
06:54PM 64.8151 -147.8564 304° West  Level Estimated
06:55PM 64.8151 -147.8564 304° West  Level Estimated
06:56PM 64.8151 -147.8564 304° West  Level Estimated
06:57PM 64.8151 -147.8564 304° West  Level Estimated
06:58PM 64.8151 -147.8564 304° West  Level Estimated
06:59PM 64.8151 -147.8564 304° West  Level Estimated
07:00PM 64.8151 -147.8564 304° West  Level Estimated
07:01PM 64.8151 -147.8564 304° West  Level Estimated
07:02PM 64.8151 -147.8564 304° West  Level Estimated
07:03PM 64.8151 -147.8564 304° West  Level Estimated
07:04PM 64.8151 -147.8564 304° West  Level Estimated
07:05PM 64.8151 -147.8564 304° West  Level Estimated
07:06PM 64.8151 -147.8564 304° West  Level Estimated